sensor_id;sensor_type;location;lat;lon;timestamp;P1;durP1;ratioP1;P2;durP2;ratioP2
35424;SDS011;21537;48.226;16.400;2022-11-15T00:01:56;135.90;;;43.10;;
35424;SDS011;21537;48.226;16.400;2022-11-15T00:04:41;132.65;;;44.15;;
35424;SDS011;21537;48.226;16.400;2022-11-15T00:07:26;145.02;;;45.15;;
35424;SDS011;21537;48.226;16.400;2022-11-15T00:10:11;139.77;;;43.40;;
35424;SDS011;21537;48.226;16.400;2022-11-15T00:12:55;148.23;;;44.80;;
35424;SDS011;21537;48.226;16.400;2022-11-15T00:15:40;149.95;;;46.50;;
35424;SDS011;21537;48.226;16.400;2022-11-15T00:18:25;149.70;;;44.47;;
35424;SDS011;21537;48.226;16.400;2022-11-15T00:21:11;134.40;;;41.47;;
35424;SDS011;21537;48.226;16.400;2022-11-15T00:23:57;146.77;;;45.53;;
35424;SDS011;21537;48.226;16.400;2022-11-15T00:26:42;138.27;;;42.55;;
35424;SDS011;21537;48.226;16.400;2022-11-15T00:29:27;150.80;;;45.22;;
35424;SDS011;21537;48.226;16.400;2022-11-15T00:32:11;147.00;;;44.45;;
35424;SDS011;21537;48.226;16.400;2022-11-15T00:34:56;160.32;;;46.65;;
35424;SDS011;21537;48.226;16.400;2022-11-15T00:37:40;154.98;;;44.25;;
35424;SDS011;21537;48.226;16.400;2022-11-15T00:40:25;154.50;;;44.77;;
35424;SDS011;21537;48.226;16.400;2022-11-15T00:43:09;150.20;;;43.78;;
35424;SDS011;21537;48.226;16.400;2022-11-15T00:45:54;155.68;;;44.03;;
35424;SDS011;21537;48.226;16.400;2022-11-15T00:48:39;159.65;;;46.80;;
35424;SDS011;21537;48.226;16.400;2022-11-15T00:51:23;155.63;;;45.53;;
35424;SDS011;21537;48.226;16.400;2022-11-15T00:54:08;150.52;;;45.08;;
35424;SDS011;21537;48.226;16.400;2022-11-15T00:56:52;152.13;;;44.35;;
35424;SDS011;21537;48.226;16.400;2022-11-15T00:59:37;157.48;;;43.25;;
35424;SDS011;21537;48.226;16.400;2022-11-15T01:02:22;141.80;;;43.05;;
35424;SDS011;21537;48.226;16.400;2022-11-15T01:05:07;155.32;;;43.42;;
35424;SDS011;21537;48.226;16.400;2022-11-15T01:07:52;136.57;;;41.38;;
35424;SDS011;21537;48.226;16.400;2022-11-15T01:10:40;151.13;;;44.25;;
35424;SDS011;21537;48.226;16.400;2022-11-15T01:13:24;139.35;;;43.35;;
35424;SDS011;21537;48.226;16.400;2022-11-15T01:16:13;149.00;;;43.55;;
35424;SDS011;21537;48.226;16.400;2022-11-15T01:19:03;134.05;;;42.40;;
35424;SDS011;21537;48.226;16.400;2022-11-15T01:21:48;143.93;;;42.97;;
35424;SDS011;21537;48.226;16.400;2022-11-15T01:24:34;139.75;;;42.13;;
35424;SDS011;21537;48.226;16.400;2022-11-15T01:27:18;135.13;;;42.37;;
35424;SDS011;21537;48.226;16.400;2022-11-15T01:30:03;137.77;;;41.63;;
35424;SDS011;21537;48.226;16.400;2022-11-15T01:32:48;134.68;;;42.65;;
35424;SDS011;21537;48.226;16.400;2022-11-15T01:35:33;126.45;;;40.50;;
35424;SDS011;21537;48.226;16.400;2022-11-15T01:38:21;134.20;;;40.47;;
35424;SDS011;21537;48.226;16.400;2022-11-15T01:41:06;131.02;;;41.10;;
35424;SDS011;21537;48.226;16.400;2022-11-15T01:43:57;126.82;;;41.30;;
35424;SDS011;21537;48.226;16.400;2022-11-15T01:47:01;123.45;;;39.30;;
35424;SDS011;21537;48.226;16.400;2022-11-15T01:49:56;136.00;;;40.95;;
35424;SDS011;21537;48.226;16.400;2022-11-15T01:52:46;119.75;;;39.05;;
35424;SDS011;21537;48.226;16.400;2022-11-15T01:55:31;116.72;;;37.22;;
35424;SDS011;21537;48.226;16.400;2022-11-15T01:58:16;117.32;;;39.58;;
35424;SDS011;21537;48.226;16.400;2022-11-15T02:01:00;110.28;;;36.45;;
35424;SDS011;21537;48.226;16.400;2022-11-15T02:03:52;115.95;;;39.53;;
35424;SDS011;21537;48.226;16.400;2022-11-15T02:06:42;121.40;;;37.55;;
35424;SDS011;21537;48.226;16.400;2022-11-15T02:09:28;117.43;;;38.55;;
35424;SDS011;21537;48.226;16.400;2022-11-15T02:14:59;109.25;;;37.15;;
35424;SDS011;21537;48.226;16.400;2022-11-15T02:17:48;133.77;;;38.20;;
35424;SDS011;21537;48.226;16.400;2022-11-15T02:20:57;116.53;;;36.90;;
35424;SDS011;21537;48.226;16.400;2022-11-15T02:30:32;136.27;;;39.40;;
35424;SDS011;21537;48.226;16.400;2022-11-15T02:39:34;131.15;;;39.85;;
35424;SDS011;21537;48.226;16.400;2022-11-15T02:42:32;112.50;;;37.85;;
35424;SDS011;21537;48.226;16.400;2022-11-15T02:45:44;120.00;;;39.25;;
35424;SDS011;21537;48.226;16.400;2022-11-15T02:48:34;129.32;;;39.10;;
35424;SDS011;21537;48.226;16.400;2022-11-15T02:51:20;115.43;;;37.45;;
35424;SDS011;21537;48.226;16.400;2022-11-15T02:54:05;129.27;;;38.50;;
35424;SDS011;21537;48.226;16.400;2022-11-15T02:56:51;125.38;;;37.88;;
35424;SDS011;21537;48.226;16.400;2022-11-15T03:00:01;109.35;;;36.10;;
35424;SDS011;21537;48.226;16.400;2022-11-15T03:06:09;105.15;;;35.92;;
35424;SDS011;21537;48.226;16.400;2022-11-15T03:11:58;116.97;;;38.63;;
35424;SDS011;21537;48.226;16.400;2022-11-15T03:17:49;124.53;;;39.17;;
35424;SDS011;21537;48.226;16.400;2022-11-15T03:20:48;110.90;;;36.05;;
35424;SDS011;21537;48.226;16.400;2022-11-15T03:23:35;119.90;;;37.17;;
35424;SDS011;21537;48.226;16.400;2022-11-15T03:26:21;118.90;;;37.97;;
35424;SDS011;21537;48.226;16.400;2022-11-15T03:29:17;127.32;;;39.03;;
35424;SDS011;21537;48.226;16.400;2022-11-15T03:32:15;131.43;;;38.97;;
35424;SDS011;21537;48.226;16.400;2022-11-15T03:35:04;118.03;;;37.47;;
35424;SDS011;21537;48.226;16.400;2022-11-15T03:40:59;117.95;;;38.50;;
35424;SDS011;21537;48.226;16.400;2022-11-15T03:50:20;125.05;;;38.67;;
35424;SDS011;21537;48.226;16.400;2022-11-15T03:53:11;128.55;;;39.35;;
35424;SDS011;21537;48.226;16.400;2022-11-15T03:55:57;144.52;;;41.03;;
35424;SDS011;21537;48.226;16.400;2022-11-15T03:58:41;140.20;;;40.65;;
35424;SDS011;21537;48.226;16.400;2022-11-15T04:01:26;131.15;;;38.60;;
35424;SDS011;21537;48.226;16.400;2022-11-15T04:04:11;139.45;;;40.03;;
35424;SDS011;21537;48.226;16.400;2022-11-15T04:06:55;148.35;;;41.08;;
35424;SDS011;21537;48.226;16.400;2022-11-15T04:09:40;148.73;;;42.10;;
35424;SDS011;21537;48.226;16.400;2022-11-15T04:12:44;156.90;;;43.30;;
35424;SDS011;21537;48.226;16.400;2022-11-15T04:15:33;145.18;;;42.78;;
35424;SDS011;21537;48.226;16.400;2022-11-15T04:18:18;154.27;;;44.30;;
35424;SDS011;21537;48.226;16.400;2022-11-15T04:21:03;145.20;;;41.03;;
35424;SDS011;21537;48.226;16.400;2022-11-15T04:24:06;146.85;;;41.85;;
35424;SDS011;21537;48.226;16.400;2022-11-15T04:26:56;154.98;;;42.85;;
35424;SDS011;21537;48.226;16.400;2022-11-15T04:29:41;156.10;;;44.88;;
35424;SDS011;21537;48.226;16.400;2022-11-15T04:32:28;152.52;;;41.80;;
35424;SDS011;21537;48.226;16.400;2022-11-15T04:35:13;161.93;;;43.15;;
35424;SDS011;21537;48.226;16.400;2022-11-15T04:37:58;154.52;;;44.33;;
35424;SDS011;21537;48.226;16.400;2022-11-15T04:43:27;155.32;;;43.42;;
35424;SDS011;21537;48.226;16.400;2022-11-15T04:48:58;167.27;;;44.22;;
35424;SDS011;21537;48.226;16.400;2022-11-15T04:51:43;166.23;;;45.45;;
35424;SDS011;21537;48.226;16.400;2022-11-15T04:54:28;181.85;;;46.55;;
35424;SDS011;21537;48.226;16.400;2022-11-15T04:57:12;170.32;;;45.78;;
35424;SDS011;21537;48.226;16.400;2022-11-15T05:02:42;162.57;;;44.85;;
35424;SDS011;21537;48.226;16.400;2022-11-15T05:05:45;164.82;;;45.85;;
35424;SDS011;21537;48.226;16.400;2022-11-15T05:08:30;172.73;;;45.65;;
35424;SDS011;21537;48.226;16.400;2022-11-15T05:11:14;178.77;;;45.67;;
35424;SDS011;21537;48.226;16.400;2022-11-15T05:13:59;177.13;;;46.22;;
35424;SDS011;21537;48.226;16.400;2022-11-15T05:16:44;177.20;;;46.10;;
35424;SDS011;21537;48.226;16.400;2022-11-15T05:19:28;175.35;;;48.17;;
35424;SDS011;21537;48.226;16.400;2022-11-15T05:22:13;179.48;;;48.30;;
35424;SDS011;21537;48.226;16.400;2022-11-15T05:24:58;195.48;;;49.78;;
35424;SDS011;21537;48.226;16.400;2022-11-15T05:27:42;185.32;;;50.40;;
35424;SDS011;21537;48.226;16.400;2022-11-15T05:30:27;180.27;;;52.65;;
35424;SDS011;21537;48.226;16.400;2022-11-15T05:33:11;165.45;;;51.70;;
35424;SDS011;21537;48.226;16.400;2022-11-15T05:36:00;175.98;;;50.00;;
35424;SDS011;21537;48.226;16.400;2022-11-15T05:38:53;182.18;;;49.42;;
35424;SDS011;21537;48.226;16.400;2022-11-15T05:41:39;183.13;;;50.10;;
35424;SDS011;21537;48.226;16.400;2022-11-15T05:44:32;176.35;;;50.05;;
35424;SDS011;21537;48.226;16.400;2022-11-15T05:47:21;173.40;;;51.40;;
35424;SDS011;21537;48.226;16.400;2022-11-15T05:50:10;176.70;;;48.53;;
35424;SDS011;21537;48.226;16.400;2022-11-15T05:52:58;170.35;;;49.58;;
35424;SDS011;21537;48.226;16.400;2022-11-15T05:55:43;155.15;;;48.40;;
35424;SDS011;21537;48.226;16.400;2022-11-15T05:58:28;178.95;;;49.20;;
35424;SDS011;21537;48.226;16.400;2022-11-15T06:01:12;180.23;;;50.20;;
35424;SDS011;21537;48.226;16.400;2022-11-15T06:03:57;188.55;;;51.20;;
35424;SDS011;21537;48.226;16.400;2022-11-15T06:06:42;192.73;;;49.35;;
35424;SDS011;21537;48.226;16.400;2022-11-15T06:09:26;172.10;;;46.90;;
35424;SDS011;21537;48.226;16.400;2022-11-15T06:12:11;178.18;;;49.25;;
35424;SDS011;21537;48.226;16.400;2022-11-15T06:14:55;198.23;;;48.63;;
35424;SDS011;21537;48.226;16.400;2022-11-15T06:17:40;182.02;;;48.95;;
35424;SDS011;21537;48.226;16.400;2022-11-15T06:20:25;172.63;;;48.65;;
35424;SDS011;21537;48.226;16.400;2022-11-15T06:23:10;188.13;;;51.20;;
35424;SDS011;21537;48.226;16.400;2022-11-15T06:28:42;182.48;;;48.97;;
35424;SDS011;21537;48.226;16.400;2022-11-15T06:31:27;181.15;;;50.17;;
35424;SDS011;21537;48.226;16.400;2022-11-15T06:37:24;163.60;;;48.58;;
35424;SDS011;21537;48.226;16.400;2022-11-15T06:40:10;200.00;;;50.70;;
35424;SDS011;21537;48.226;16.400;2022-11-15T06:42:58;193.90;;;51.00;;
35424;SDS011;21537;48.226;16.400;2022-11-15T06:45:43;193.20;;;53.00;;
35424;SDS011;21537;48.226;16.400;2022-11-15T06:48:28;200.27;;;52.67;;
35424;SDS011;21537;48.226;16.400;2022-11-15T06:51:16;190.50;;;48.35;;
35424;SDS011;21537;48.226;16.400;2022-11-15T06:54:01;182.38;;;50.10;;
35424;SDS011;21537;48.226;16.400;2022-11-15T06:56:46;182.32;;;48.83;;
35424;SDS011;21537;48.226;16.400;2022-11-15T06:59:30;212.60;;;52.13;;
35424;SDS011;21537;48.226;16.400;2022-11-15T07:02:15;174.63;;;50.72;;
35424;SDS011;21537;48.226;16.400;2022-11-15T07:05:00;168.73;;;49.33;;
35424;SDS011;21537;48.226;16.400;2022-11-15T07:07:50;183.73;;;48.97;;
35424;SDS011;21537;48.226;16.400;2022-11-15T07:10:35;192.10;;;50.33;;
35424;SDS011;21537;48.226;16.400;2022-11-15T07:13:23;179.38;;;49.95;;
35424;SDS011;21537;48.226;16.400;2022-11-15T07:16:09;189.32;;;47.95;;
35424;SDS011;21537;48.226;16.400;2022-11-15T07:21:38;181.40;;;50.50;;
35424;SDS011;21537;48.226;16.400;2022-11-15T07:24:23;182.13;;;50.67;;
35424;SDS011;21537;48.226;16.400;2022-11-15T07:27:08;171.52;;;47.67;;
35424;SDS011;21537;48.226;16.400;2022-11-15T07:29:54;178.73;;;48.45;;
35424;SDS011;21537;48.226;16.400;2022-11-15T07:32:39;173.27;;;48.22;;
35424;SDS011;21537;48.226;16.400;2022-11-15T07:35:24;171.52;;;48.67;;
35424;SDS011;21537;48.226;16.400;2022-11-15T07:38:10;188.82;;;49.70;;
35424;SDS011;21537;48.226;16.400;2022-11-15T07:40:59;178.25;;;51.10;;
35424;SDS011;21537;48.226;16.400;2022-11-15T07:43:45;187.65;;;50.30;;
35424;SDS011;21537;48.226;16.400;2022-11-15T07:46:29;175.93;;;48.97;;
35424;SDS011;21537;48.226;16.400;2022-11-15T07:49:15;175.57;;;48.30;;
35424;SDS011;21537;48.226;16.400;2022-11-15T07:51:59;176.43;;;49.88;;
35424;SDS011;21537;48.226;16.400;2022-11-15T07:54:44;175.45;;;51.25;;
35424;SDS011;21537;48.226;16.400;2022-11-15T07:57:29;185.30;;;48.17;;
35424;SDS011;21537;48.226;16.400;2022-11-15T08:00:27;174.55;;;47.33;;
35424;SDS011;21537;48.226;16.400;2022-11-15T08:03:36;170.93;;;48.00;;
35424;SDS011;21537;48.226;16.400;2022-11-15T08:06:21;186.20;;;47.95;;
35424;SDS011;21537;48.226;16.400;2022-11-15T08:09:16;172.48;;;48.58;;
35424;SDS011;21537;48.226;16.400;2022-11-15T08:12:23;174.85;;;48.45;;
35424;SDS011;21537;48.226;16.400;2022-11-15T08:15:25;166.82;;;48.92;;
35424;SDS011;21537;48.226;16.400;2022-11-15T08:18:21;172.25;;;48.00;;
35424;SDS011;21537;48.226;16.400;2022-11-15T08:21:13;163.13;;;47.63;;
35424;SDS011;21537;48.226;16.400;2022-11-15T08:24:18;152.68;;;44.17;;
35424;SDS011;21537;48.226;16.400;2022-11-15T08:27:04;146.65;;;45.30;;
35424;SDS011;21537;48.226;16.400;2022-11-15T08:29:59;153.85;;;48.05;;
35424;SDS011;21537;48.226;16.400;2022-11-15T08:32:58;167.07;;;47.60;;
35424;SDS011;21537;48.226;16.400;2022-11-15T08:35:43;157.75;;;45.90;;
35424;SDS011;21537;48.226;16.400;2022-11-15T08:38:31;149.77;;;44.75;;
35424;SDS011;21537;48.226;16.400;2022-11-15T08:41:36;171.75;;;47.20;;
35424;SDS011;21537;48.226;16.400;2022-11-15T08:45:09;167.95;;;45.03;;
35424;SDS011;21537;48.226;16.400;2022-11-15T08:54:52;161.10;;;46.63;;
35424;SDS011;21537;48.226;16.400;2022-11-15T09:01:27;165.00;;;45.97;;
35424;SDS011;21537;48.226;16.400;2022-11-15T09:04:12;165.52;;;46.30;;
35424;SDS011;21537;48.226;16.400;2022-11-15T09:06:56;152.10;;;44.10;;
35424;SDS011;21537;48.226;16.400;2022-11-15T09:09:42;150.30;;;45.53;;
35424;SDS011;21537;48.226;16.400;2022-11-15T09:12:28;172.23;;;48.28;;
35424;SDS011;21537;48.226;16.400;2022-11-15T09:15:14;157.55;;;46.55;;
35424;SDS011;21537;48.226;16.400;2022-11-15T09:17:59;159.90;;;47.53;;
35424;SDS011;21537;48.226;16.400;2022-11-15T09:20:43;153.05;;;45.50;;
35424;SDS011;21537;48.226;16.400;2022-11-15T09:23:27;159.57;;;46.15;;
35424;SDS011;21537;48.226;16.400;2022-11-15T09:26:12;167.65;;;46.17;;
35424;SDS011;21537;48.226;16.400;2022-11-15T09:28:57;167.15;;;47.50;;
35424;SDS011;21537;48.226;16.400;2022-11-15T09:31:41;143.68;;;43.40;;
35424;SDS011;21537;48.226;16.400;2022-11-15T09:34:26;177.90;;;47.42;;
35424;SDS011;21537;48.226;16.400;2022-11-15T09:37:11;170.60;;;47.75;;
35424;SDS011;21537;48.226;16.400;2022-11-15T09:39:56;168.02;;;48.67;;
35424;SDS011;21537;48.226;16.400;2022-11-15T09:48:49;151.25;;;42.92;;
35424;SDS011;21537;48.226;16.400;2022-11-15T09:51:41;154.32;;;45.80;;
35424;SDS011;21537;48.226;16.400;2022-11-15T09:57:04;178.98;;;47.03;;
35424;SDS011;21537;48.226;16.400;2022-11-15T10:05:12;158.93;;;45.55;;
35424;SDS011;21537;48.226;16.400;2022-11-15T10:07:48;161.27;;;47.33;;
35424;SDS011;21537;48.226;16.400;2022-11-15T10:10:36;152.13;;;44.78;;
35424;SDS011;21537;48.226;16.400;2022-11-15T10:13:12;160.23;;;45.00;;
35424;SDS011;21537;48.226;16.400;2022-11-15T10:15:47;161.80;;;46.78;;
35424;SDS011;21537;48.226;16.400;2022-11-15T10:18:28;151.98;;;45.45;;
35424;SDS011;21537;48.226;16.400;2022-11-15T10:21:33;161.05;;;44.05;;
35424;SDS011;21537;48.226;16.400;2022-11-15T10:24:27;163.63;;;49.50;;
35424;SDS011;21537;48.226;16.400;2022-11-15T10:26:57;163.52;;;47.45;;
35424;SDS011;21537;48.226;16.400;2022-11-15T10:29:23;166.05;;;47.95;;
35424;SDS011;21537;48.226;16.400;2022-11-15T10:31:50;158.18;;;48.63;;
35424;SDS011;21537;48.226;16.400;2022-11-15T10:34:17;151.90;;;46.97;;
35424;SDS011;21537;48.226;16.400;2022-11-15T10:36:45;152.93;;;46.20;;
35424;SDS011;21537;48.226;16.400;2022-11-15T10:39:12;152.93;;;46.42;;
35424;SDS011;21537;48.226;16.400;2022-11-15T10:41:39;153.45;;;45.67;;
35424;SDS011;21537;48.226;16.400;2022-11-15T10:46:35;141.55;;;44.55;;
35424;SDS011;21537;48.226;16.400;2022-11-15T10:49:18;150.02;;;46.08;;
35424;SDS011;21537;48.226;16.400;2022-11-15T10:57:54;148.05;;;45.22;;
35424;SDS011;21537;48.226;16.400;2022-11-15T11:00:05;138.13;;;43.38;;
35424;SDS011;21537;48.226;16.400;2022-11-15T11:05:44;143.88;;;45.10;;
35424;SDS011;21537;48.226;16.400;2022-11-15T11:10:51;143.30;;;44.45;;
35424;SDS011;21537;48.226;16.400;2022-11-15T11:13:23;139.50;;;45.28;;
35424;SDS011;21537;48.226;16.400;2022-11-15T11:15:53;135.32;;;43.72;;
35424;SDS011;21537;48.226;16.400;2022-11-15T11:18:55;141.15;;;46.03;;
35424;SDS011;21537;48.226;16.400;2022-11-15T11:21:37;147.60;;;46.45;;
35424;SDS011;21537;48.226;16.400;2022-11-15T11:27:47;138.98;;;44.63;;
35424;SDS011;21537;48.226;16.400;2022-11-15T11:30:23;137.35;;;45.50;;
35424;SDS011;21537;48.226;16.400;2022-11-15T11:36:11;132.90;;;45.67;;
35424;SDS011;21537;48.226;16.400;2022-11-15T11:44:03;134.48;;;44.55;;
35424;SDS011;21537;48.226;16.400;2022-11-15T11:49:25;136.02;;;44.40;;
35424;SDS011;21537;48.226;16.400;2022-11-15T11:55:19;136.80;;;45.25;;
35424;SDS011;21537;48.226;16.400;2022-11-15T11:57:51;121.13;;;44.72;;
35424;SDS011;21537;48.226;16.400;2022-11-15T12:00:26;132.02;;;42.42;;
35424;SDS011;21537;48.226;16.400;2022-11-15T12:05:35;143.75;;;44.95;;
35424;SDS011;21537;48.226;16.400;2022-11-15T12:13:44;145.40;;;44.42;;
35424;SDS011;21537;48.226;16.400;2022-11-15T12:18:49;147.60;;;47.70;;
35424;SDS011;21537;48.226;16.400;2022-11-15T12:24:03;156.80;;;47.60;;
35424;SDS011;21537;48.226;16.400;2022-11-15T12:26:50;152.35;;;45.67;;
35424;SDS011;21537;48.226;16.400;2022-11-15T12:31:54;133.57;;;45.28;;
35424;SDS011;21537;48.226;16.400;2022-11-15T12:36:53;130.70;;;44.58;;
35424;SDS011;21537;48.226;16.400;2022-11-15T12:39:19;136.20;;;45.38;;
35424;SDS011;21537;48.226;16.400;2022-11-15T12:59:48;145.18;;;48.45;;
35424;SDS011;21537;48.226;16.400;2022-11-15T13:02:27;146.98;;;47.40;;
35424;SDS011;21537;48.226;16.400;2022-11-15T13:17:42;117.55;;;42.58;;
35424;SDS011;21537;48.226;16.400;2022-11-15T13:22:47;113.57;;;40.47;;
35424;SDS011;21537;48.226;16.400;2022-11-15T13:31:01;107.25;;;41.80;;
35424;SDS011;21537;48.226;16.400;2022-11-15T13:33:31;114.70;;;41.83;;
35424;SDS011;21537;48.226;16.400;2022-11-15T13:36:07;106.35;;;41.05;;
35424;SDS011;21537;48.226;16.400;2022-11-15T13:38:40;102.75;;;41.05;;
35424;SDS011;21537;48.226;16.400;2022-11-15T13:46:10;103.07;;;41.75;;
35424;SDS011;21537;48.226;16.400;2022-11-15T13:48:36;106.78;;;41.20;;
35424;SDS011;21537;48.226;16.400;2022-11-15T13:51:03;115.32;;;43.13;;
35424;SDS011;21537;48.226;16.400;2022-11-15T13:53:33;101.53;;;41.67;;
35424;SDS011;21537;48.226;16.400;2022-11-15T13:56:04;107.03;;;44.63;;
35424;SDS011;21537;48.226;16.400;2022-11-15T13:58:30;99.47;;;42.00;;
35424;SDS011;21537;48.226;16.400;2022-11-15T14:01:00;101.68;;;41.00;;
35424;SDS011;21537;48.226;16.400;2022-11-15T14:03:28;97.53;;;41.40;;
35424;SDS011;21537;48.226;16.400;2022-11-15T14:06:06;99.55;;;42.63;;
35424;SDS011;21537;48.226;16.400;2022-11-15T14:08:38;103.30;;;44.55;;
35424;SDS011;21537;48.226;16.400;2022-11-15T14:11:08;105.20;;;42.25;;
35424;SDS011;21537;48.226;16.400;2022-11-15T14:13:42;109.53;;;46.47;;
35424;SDS011;21537;48.226;16.400;2022-11-15T14:16:32;100.17;;;44.63;;
35424;SDS011;21537;48.226;16.400;2022-11-15T14:19:03;109.75;;;44.88;;
35424;SDS011;21537;48.226;16.400;2022-11-15T14:21:30;109.72;;;45.25;;
35424;SDS011;21537;48.226;16.400;2022-11-15T14:26:47;105.97;;;45.70;;
35424;SDS011;21537;48.226;16.400;2022-11-15T14:29:29;118.05;;;48.42;;
35424;SDS011;21537;48.226;16.400;2022-11-15T14:32:17;113.20;;;48.10;;
35424;SDS011;21537;48.226;16.400;2022-11-15T14:34:46;128.25;;;48.13;;
35424;SDS011;21537;48.226;16.400;2022-11-15T14:37:24;127.85;;;49.15;;
35424;SDS011;21537;48.226;16.400;2022-11-15T14:39:52;120.63;;;48.03;;
35424;SDS011;21537;48.226;16.400;2022-11-15T14:42:19;114.00;;;46.80;;
35424;SDS011;21537;48.226;16.400;2022-11-15T14:44:45;105.72;;;44.85;;
35424;SDS011;21537;48.226;16.400;2022-11-15T14:47:11;103.97;;;44.08;;
35424;SDS011;21537;48.226;16.400;2022-11-15T14:49:37;122.53;;;46.55;;
35424;SDS011;21537;48.226;16.400;2022-11-15T14:52:11;104.20;;;44.88;;
35424;SDS011;21537;48.226;16.400;2022-11-15T14:54:41;101.82;;;41.90;;
35424;SDS011;21537;48.226;16.400;2022-11-15T14:57:06;103.00;;;44.67;;
35424;SDS011;21537;48.226;16.400;2022-11-15T14:59:32;114.95;;;47.65;;
35424;SDS011;21537;48.226;16.400;2022-11-15T15:01:58;114.28;;;45.92;;
35424;SDS011;21537;48.226;16.400;2022-11-15T15:04:24;113.88;;;46.88;;
35424;SDS011;21537;48.226;16.400;2022-11-15T15:06:50;114.35;;;45.67;;
35424;SDS011;21537;48.226;16.400;2022-11-15T15:11:49;116.47;;;47.13;;
35424;SDS011;21537;48.226;16.400;2022-11-15T15:14:15;111.68;;;49.20;;
35424;SDS011;21537;48.226;16.400;2022-11-15T15:16:41;111.55;;;46.97;;
35424;SDS011;21537;48.226;16.400;2022-11-15T15:19:10;109.30;;;47.55;;
35424;SDS011;21537;48.226;16.400;2022-11-15T15:21:36;116.75;;;49.53;;
35424;SDS011;21537;48.226;16.400;2022-11-15T15:24:03;123.82;;;49.67;;
35424;SDS011;21537;48.226;16.400;2022-11-15T15:26:29;119.50;;;46.30;;
35424;SDS011;21537;48.226;16.400;2022-11-15T15:28:55;108.05;;;45.65;;
35424;SDS011;21537;48.226;16.400;2022-11-15T15:31:20;114.85;;;44.75;;
35424;SDS011;21537;48.226;16.400;2022-11-15T15:33:46;106.57;;;45.72;;
35424;SDS011;21537;48.226;16.400;2022-11-15T15:36:13;108.82;;;45.17;;
35424;SDS011;21537;48.226;16.400;2022-11-15T15:38:56;108.05;;;45.13;;
35424;SDS011;21537;48.226;16.400;2022-11-15T15:41:22;115.47;;;47.72;;
35424;SDS011;21537;48.226;16.400;2022-11-15T15:43:48;114.38;;;49.38;;
35424;SDS011;21537;48.226;16.400;2022-11-15T15:46:15;120.78;;;47.47;;
35424;SDS011;21537;48.226;16.400;2022-11-15T15:48:43;120.68;;;49.05;;
35424;SDS011;21537;48.226;16.400;2022-11-15T15:51:09;134.15;;;54.20;;
35424;SDS011;21537;48.226;16.400;2022-11-15T15:53:35;138.35;;;53.60;;
35424;SDS011;21537;48.226;16.400;2022-11-15T15:56:01;148.32;;;55.70;;
35424;SDS011;21537;48.226;16.400;2022-11-15T15:58:27;147.05;;;55.58;;
35424;SDS011;21537;48.226;16.400;2022-11-15T16:00:53;145.00;;;55.33;;
35424;SDS011;21537;48.226;16.400;2022-11-15T16:03:18;141.93;;;55.53;;
35424;SDS011;21537;48.226;16.400;2022-11-15T16:05:44;130.93;;;51.75;;
35424;SDS011;21537;48.226;16.400;2022-11-15T16:08:18;143.85;;;54.33;;
35424;SDS011;21537;48.226;16.400;2022-11-15T16:10:44;142.68;;;56.05;;
35424;SDS011;21537;48.226;16.400;2022-11-15T16:13:10;135.45;;;54.00;;
35424;SDS011;21537;48.226;16.400;2022-11-15T16:15:36;121.88;;;48.05;;
35424;SDS011;21537;48.226;16.400;2022-11-15T16:18:03;118.50;;;47.90;;
35424;SDS011;21537;48.226;16.400;2022-11-15T16:23:02;115.07;;;48.05;;
35424;SDS011;21537;48.226;16.400;2022-11-15T16:25:30;110.03;;;46.90;;
35424;SDS011;21537;48.226;16.400;2022-11-15T16:27:59;102.88;;;44.50;;
35424;SDS011;21537;48.226;16.400;2022-11-15T16:30:25;103.45;;;43.70;;
35424;SDS011;21537;48.226;16.400;2022-11-15T16:32:54;115.07;;;46.28;;
35424;SDS011;21537;48.226;16.400;2022-11-15T16:35:23;113.78;;;46.75;;
35424;SDS011;21537;48.226;16.400;2022-11-15T16:37:49;111.38;;;46.90;;
35424;SDS011;21537;48.226;16.400;2022-11-15T16:42:55;109.93;;;44.17;;
35424;SDS011;21537;48.226;16.400;2022-11-15T16:45:22;102.07;;;43.85;;
35424;SDS011;21537;48.226;16.400;2022-11-15T16:47:49;101.10;;;43.50;;
35424;SDS011;21537;48.226;16.400;2022-11-15T16:50:19;94.95;;;39.22;;
35424;SDS011;21537;48.226;16.400;2022-11-15T16:52:53;84.25;;;36.60;;
35424;SDS011;21537;48.226;16.400;2022-11-15T16:55:51;82.10;;;35.78;;
35424;SDS011;21537;48.226;16.400;2022-11-15T16:58:18;85.25;;;35.83;;
35424;SDS011;21537;48.226;16.400;2022-11-15T17:00:44;80.43;;;35.33;;
35424;SDS011;21537;48.226;16.400;2022-11-15T17:03:10;88.07;;;35.05;;
35424;SDS011;21537;48.226;16.400;2022-11-15T17:05:36;89.15;;;34.92;;
35424;SDS011;21537;48.226;16.400;2022-11-15T17:08:02;89.13;;;35.42;;
35424;SDS011;21537;48.226;16.400;2022-11-15T17:10:28;83.15;;;36.30;;
35424;SDS011;21537;48.226;16.400;2022-11-15T17:12:54;86.50;;;35.25;;
35424;SDS011;21537;48.226;16.400;2022-11-15T17:15:20;92.25;;;36.88;;
35424;SDS011;21537;48.226;16.400;2022-11-15T17:17:53;89.82;;;34.92;;
35424;SDS011;21537;48.226;16.400;2022-11-15T17:20:20;95.95;;;37.95;;
35424;SDS011;21537;48.226;16.400;2022-11-15T17:22:47;96.72;;;37.75;;
35424;SDS011;21537;48.226;16.400;2022-11-15T17:25:13;91.78;;;38.28;;
35424;SDS011;21537;48.226;16.400;2022-11-15T17:27:39;88.82;;;35.38;;
35424;SDS011;21537;48.226;16.400;2022-11-15T17:30:05;85.38;;;35.85;;
35424;SDS011;21537;48.226;16.400;2022-11-15T17:32:34;93.97;;;35.03;;
35424;SDS011;21537;48.226;16.400;2022-11-15T17:35:02;90.72;;;36.30;;
35424;SDS011;21537;48.226;16.400;2022-11-15T17:37:31;89.93;;;36.05;;
35424;SDS011;21537;48.226;16.400;2022-11-15T17:40:00;93.40;;;36.63;;
35424;SDS011;21537;48.226;16.400;2022-11-15T17:42:26;102.10;;;39.13;;
35424;SDS011;21537;48.226;16.400;2022-11-15T17:44:52;98.75;;;38.95;;
35424;SDS011;21537;48.226;16.400;2022-11-15T17:47:21;93.25;;;37.97;;
35424;SDS011;21537;48.226;16.400;2022-11-15T17:49:50;97.03;;;40.90;;
35424;SDS011;21537;48.226;16.400;2022-11-15T17:55:39;89.30;;;37.55;;
35424;SDS011;21537;48.226;16.400;2022-11-15T17:58:13;92.47;;;38.53;;
35424;SDS011;21537;48.226;16.400;2022-11-15T18:01:08;98.63;;;38.70;;
35424;SDS011;21537;48.226;16.400;2022-11-15T18:08:10;91.97;;;35.75;;
35424;SDS011;21537;48.226;16.400;2022-11-15T18:10:48;94.20;;;36.08;;
35424;SDS011;21537;48.226;16.400;2022-11-15T18:13:16;87.93;;;36.50;;
35424;SDS011;21537;48.226;16.400;2022-11-15T18:15:48;92.22;;;36.28;;
35424;SDS011;21537;48.226;16.400;2022-11-15T18:18:20;82.82;;;34.40;;
35424;SDS011;21537;48.226;16.400;2022-11-15T18:20:46;88.45;;;37.33;;
35424;SDS011;21537;48.226;16.400;2022-11-15T18:23:12;83.40;;;34.88;;